Thunder radar more information blitzortung!


Radar de pluja more information rain snow radar


Visita la nostra xarxa de llocs de meteo:

Template documentation
and downloads

And another site



No particular awareness of the weather is required.    There are no Weather-warnings

Pagina Historial Weather Underground text

Diari Resum Juny 21, 2017 Unitats:  Imperial    Mètric   Tant
« Previous Dia
SegĂźent Dia »
Diari Setmana Mensual Anual Personalitzada
  Maxima: Minima: Media:
Temperatura: 95.2 °F 69.6 °F 83.7 °F
Punt de rosada: 64.2 °F 55.6 °F 60.6 °F
Humitat: 61 % 35 % 47 %
Wind Speed: 12.7 mph 0 mph 4.3 mph
RĂ fegues de vent: 12.7 mph - -
Vent:- - SW
Pression baro: 30 in 29.9 in -
Precipitacions: 0 in    
Historical Graphs
 
 
Dades de taula per Juny 21, 2017
Temps Temperatura Punt de rosada Pression baro Vent Wind Speed RĂ fegues de vent Humitat Rainfall Rate (Hourly)
00:04 74.3 °F 59 °F 30 in West 3.5 mph 3.5 mph 59 % 0 in
00:05 71.6 °F 57 °F 29.9 in WSW 2 mph 4 mph 60 % 0 in
00:09 74.1 °F 58.8 °F 30 in WSW 4.6 mph 4.6 mph 59 % 0 in
00:15 71.6 °F 56.5 °F 29.9 in West 2 mph 2 mph 59 % 0 in
00:25 71.6 °F 55.9 °F 29.9 in West 2 mph 2 mph 58 % 0 in
00:35 71.4 °F 56.3 °F 29.9 in Calm   2 mph 59 % 0 in
00:45 71.1 °F 55.9 °F 29.9 in WNW 1 mph 2 mph 59 % 0 in
01:05 70.9 °F 55.8 °F 29.9 in Calm   2 mph 59 % 0 in
01:15 70.9 °F 56.3 °F 30 in NW 1 mph 2 mph 60 % 0 in
01:25 70.2 °F 55.6 °F 29.9 in Calm   1 mph 60 % 0 in
01:35 70 °F 55.6 °F 29.9 in North 2 mph 2 mph 60 % 0 in
01:45 69.6 °F 55.6 °F 29.9 in NE 1 mph 2 mph 61 % 0 in
01:55 69.6 °F 55.6 °F 30 in NNE 1 mph 1 mph 61 % 0 in
02:05 70 °F 55.9 °F 30 in North 2 mph 2 mph 61 % 0 in
02:15 70.2 °F 56.1 °F 29.9 in NNE 1 mph 3 mph 61 % 0 in
02:25 70.7 °F 56.7 °F 30 in North 1 mph 1 mph 61 % 0 in
02:35 70 °F 55.9 °F 30 in West 1 mph 2 mph 61 % 0 in
02:45 71.6 °F 57 °F 30 in West 1 mph 3 mph 60 % 0 in
02:55 71.8 °F 56.7 °F 30 in NE 2 mph 3 mph 59 % 0 in
03:05 72.7 °F 57.6 °F 30 in Calm   2 mph 59 % 0 in
03:15 73.8 °F 58.1 °F 30 in Calm   3 mph 58 % 0 in
03:25 74.3 °F 58.1 °F 30 in NE 1 mph 2 mph 57 % 0 in
03:35 75 °F 58.8 °F 30 in ENE 1 mph 2 mph 57 % 0 in
03:45 75.2 °F 57.9 °F 30 in Calm   3 mph 55 % 0 in
03:55 76.6 °F 59.4 °F 30 in NNE 1 mph 2 mph 55 % 0 in
04:05 76.5 °F 58.6 °F 30 in SSW 2 mph 3 mph 54 % 0 in
04:15 76.8 °F 58.8 °F 30 in SW 1 mph 3 mph 54 % 0 in
04:25 78.6 °F 59.5 °F 30 in SSW 1 mph 3 mph 52 % 0 in
04:35 79.5 °F 59.7 °F 30 in SSE 2 mph 2 mph 51 % 0 in
04:45 79.5 °F 59.7 °F 30 in SSE 2 mph 3 mph 51 % 0 in
04:55 80.6 °F 60.3 °F 30 in ESE 1 mph 2 mph 50 % 0 in
05:05 80.6 °F 60.3 °F 30 in NW 2 mph 4 mph 50 % 0 in
05:15 81.9 °F 60.8 °F 30 in SW 2 mph 2 mph 49 % 0 in
05:25 82.4 °F 60.6 °F 30 in Calm   2 mph 48 % 0 in
05:35 84.2 °F 61.9 °F 30 in SE 1 mph 2 mph 47 % 0 in
05:45 84.6 °F 61.5 °F 30 in SSW 1 mph 3 mph 46 % 0 in
10:47 85.8 °F 62.1 °F 30 in East 2.6 mph 2.6 mph 45 % 0 in
10:52 86.2 °F 62.2 °F 30 in SW 2.3 mph 2.3 mph 45 % 0 in
10:57 86 °F 62.2 °F 30 in SW 2.3 mph 2.3 mph 45 % 0 in
11:02 86.5 °F 62.1 °F 30 in SSE 3.5 mph 3.5 mph 44 % 0 in
11:07 86.9 °F 62.4 °F 30 in SW 2.3 mph   44 % 0 in
11:12 87.4 °F 62.8 °F 30 in SSW 2.4 mph 2.4 mph 44 % 0 in
11:17 87.4 °F 62.8 °F 30 in SSW 3.5 mph 3.5 mph 44 % 0 in
11:22 87.3 °F 62.1 °F 30 in SW 4.6 mph 4.6 mph 43 % 0 in
11:27 87.6 °F 62.4 °F 30 in WSW 3.5 mph 3.5 mph 43 % 0 in
11:32 87.4 °F 61.5 °F 30 in ENE 3.5 mph 3.5 mph 42 % 0 in
11:37 87.4 °F 61.5 °F 30 in SW 5.8 mph 5.8 mph 42 % 0 in
11:42 87.3 °F 61.3 °F 30 in SSW 4.6 mph 4.6 mph 42 % 0 in
11:47 88.2 °F 61.5 °F 30 in WSW 3.5 mph 3.5 mph 41 % 0 in
11:52 89.2 °F 62.4 °F 30 in SW 3.5 mph 3.5 mph 41 % 0 in
11:57 90.3 °F 63.3 °F 30 in WNW 4.6 mph 4.6 mph 41 % 0 in
12:02 90.3 °F 62.8 °F 30 in WSW 5.8 mph 5.8 mph 40 % 0 in
12:07 90.1 °F 61.9 °F 30 in SW 4 mph 4 mph 39 % 0 in
12:12 90.7 °F 62.2 °F 30 in SW 2.3 mph 2.3 mph 39 % 0 in
12:17 90.5 °F 61.3 °F 30 in SSE 4.6 mph 4.6 mph 38 % 0 in
12:22 91.6 °F 61.5 °F 30 in SE 5.6 mph 5.6 mph 37 % 0 in
12:27 91.6 °F 61.5 °F 30 in East 3.5 mph 3.5 mph 37 % 0 in
12:32 93 °F 63 °F 29.9 in WSW 4.6 mph 4.6 mph 37 % 0 in
12:37 93.6 °F 63.3 °F 29.9 in West 5.8 mph 5.8 mph 37 % 0 in
12:42 93.4 °F 63.1 °F 29.9 in West 4.6 mph 4.6 mph 37 % 0 in
12:47 92.7 °F 61.9 °F 30 in WSW 6.9 mph 6.9 mph 36 % 0 in
12:52 93.7 °F 62.1 °F 30 in ESE 4.6 mph 4.6 mph 35 % 0 in
12:57 94.5 °F 63.3 °F 30 in SW 2.9 mph 2.9 mph 36 % 0 in
13:02 94.6 °F 64.2 °F 29.9 in SW 3.5 mph 3.5 mph 37 % 0 in
13:08 93.6 °F 63.3 °F 29.9 in SSW 4.6 mph 4.6 mph 37 % 0 in
13:13 95 °F 63.1 °F 29.9 in SW 4.7 mph 4.7 mph 35 % 0 in
13:18 94.5 °F 63.3 °F 30 in SSW 4.6 mph 4.6 mph 36 % 0 in
13:23 94.1 °F 63.9 °F 30 in SW 4.7 mph 4.7 mph 37 % 0 in
13:28 94.5 °F 64.2 °F 30 in WSW 8.1 mph 8.1 mph 37 % 0 in
13:33 94.1 °F 63.9 °F 29.9 in SW 4.6 mph 4.6 mph 37 % 0 in
13:38 95.2 °F 64 °F 29.9 in SW 5.8 mph 5.8 mph 36 % 0 in
13:43 95.2 °F 64 °F 29.9 in SSW 3.1 mph 3.1 mph 36 % 0 in
13:48 93.9 °F 63.7 °F 29.9 in SSW 9.2 mph 9.2 mph 37 % 0 in
13:53 92.8 °F 63.5 °F 29.9 in SW 12.7 mph 12.7 mph 38 % 0 in
13:58 93.2 °F 63.9 °F 29.9 in SW 9.2 mph 9.2 mph 38 % 0 in
14:03 92.8 °F 63.5 °F 29.9 in WSW 5.8 mph 5.8 mph 38 % 0 in
14:08 91.9 °F 62.8 °F 29.9 in SW 8.1 mph 8.1 mph 38 % 0 in
14:13 92.3 °F 63 °F 29.9 in WNW 6.9 mph 6.9 mph 38 % 0 in
14:18 92.5 °F 63.1 °F 29.9 in SW 8.1 mph 8.1 mph 38 % 0 in
14:23 92.5 °F 63.1 °F 29.9 in SW 6.9 mph 6.9 mph 38 % 0 in
14:28 92.1 °F 63 °F 29.9 in SSW 10.4 mph 10.4 mph 38 % 0 in
14:33 92.1 °F 63 °F 29.9 in WSW 9.2 mph 9.2 mph 38 % 0 in
14:38 91.9 °F 62.8 °F 29.9 in West 8.1 mph 8.1 mph 38 % 0 in
14:43 91.9 °F 62.8 °F 29.9 in SSW 10.4 mph 10.4 mph 38 % 0 in
14:48 92.1 °F 63 °F 29.9 in South 6.9 mph 6.9 mph 38 % 0 in
14:53 92.5 °F 63.1 °F 29.9 in SSW 9.8 mph 9.8 mph 38 % 0 in
14:58 91.9 °F 62.8 °F 29.9 in SW 6.9 mph 6.9 mph 38 % 0 in
15:03 91.9 °F 62.8 °F 29.9 in SW 6.7 mph 6.7 mph 38 % 0 in
15:08 91.6 °F 62.4 °F 29.9 in SW 10.2 mph 10.2 mph 38 % 0 in
15:13 92.5 °F 63.1 °F 29.9 in SW 8.1 mph 8.1 mph 38 % 0 in
15:18 92.8 °F 62.8 °F 29.9 in SSW 6.9 mph 6.9 mph 37 % 0 in
15:23 93 °F 63 °F 29.9 in SW 4.6 mph 4.6 mph 37 % 0 in
15:28 92.7 °F 62.6 °F 29.9 in SSE 10.4 mph 10.4 mph 37 % 0 in
15:33 93 °F 63 °F 29.9 in South 8.1 mph 8.1 mph 37 % 0 in
15:38 92.8 °F 62.8 °F 29.9 in SW 10.4 mph 10.4 mph 37 % 0 in
15:43 93 °F 63 °F 29.9 in WSW 6 mph 6 mph 37 % 0 in
15:48 94.1 °F 63.9 °F 29.9 in WSW 5.8 mph 5.8 mph 37 % 0 in
15:53 93.7 °F 63.5 °F 29.9 in SW 10 mph 10 mph 37 % 0 in
15:58 92.5 °F 62.4 °F 29.9 in SW 5.9 mph 5.9 mph 37 % 0 in
16:03 92.5 °F 62.4 °F 29.9 in South 8.1 mph 8.1 mph 37 % 0 in
16:08 93.2 °F 63.1 °F 29.9 in SSW 5.8 mph 5.8 mph 37 % 0 in
16:13 92.7 °F 62.6 °F 29.9 in South 8.1 mph 8.1 mph 37 % 0 in
16:14 92.5 °F 62.4 °F 29.9 in West 8.1 mph 8.1 mph 37 % 0 in
16:19 93 °F 63 °F 29.9 in WSW 6.4 mph 6.4 mph 37 % 0 in
16:24 92.5 °F 62.4 °F 29.9 in SSW 5.8 mph 5.8 mph 37 % 0 in
16:29 91.9 °F 62.8 °F 29.9 in South 5.9 mph 5.9 mph 38 % 0 in
16:34 91.2 °F 62.8 °F 29.9 in SW 6.9 mph 6.9 mph 39 % 0 in
16:39 90.5 °F 62.2 °F 29.9 in SW 6.9 mph 6.9 mph 39 % 0 in
16:44 90.1 °F 61.9 °F 29.9 in South 8.1 mph 8.1 mph 39 % 0 in
16:49 89.4 °F 61.2 °F 29.9 in SW 8.1 mph 8.1 mph 39 % 0 in
16:54 88.5 °F 60.4 °F 29.9 in SW 8.1 mph 8.1 mph 39 % 0 in
16:59 88.7 °F 60.6 °F 29.9 in WSW 5.8 mph 5.8 mph 39 % 0 in
17:04 88.2 °F 60.1 °F 29.9 in SSW 5.8 mph 5.8 mph 39 % 0 in
17:09 87.6 °F 60.3 °F 29.9 in SW 5.8 mph 5.8 mph 40 % 0 in
17:14 87.3 °F 60.6 °F 29.9 in West 5.8 mph 5.8 mph 41 % 0 in
17:19 86.9 °F 60.4 °F 29.9 in WSW 6.9 mph 6.9 mph 41 % 0 in
17:24 86.4 °F 59.9 °F 29.9 in SW 5.8 mph 5.8 mph 41 % 0 in
17:29 86 °F 60.3 °F 29.9 in WSW 9.2 mph 9.2 mph 42 % 0 in
17:34 85.5 °F 60.4 °F 29.9 in SSW 6.9 mph 6.9 mph 43 % 0 in
17:39 85.3 °F 60.3 °F 29.9 in SW 4.3 mph 4.3 mph 43 % 0 in
17:44 84.9 °F 59.9 °F 29.9 in WSW 5.4 mph 5.4 mph 43 % 0 in
17:49 84.6 °F 60.3 °F 29.9 in SW 5.8 mph 5.8 mph 44 % 0 in
17:54 84.2 °F 59.9 °F 29.9 in SW 11.5 mph 11.5 mph 44 % 0 in
17:59 84 °F 61 °F 29.9 in SW 5.9 mph 5.9 mph 46 % 0 in
18:04 83.5 °F 61.2 °F 29.9 in SW 10.4 mph 10.4 mph 47 % 0 in
18:09 83.5 °F 61.2 °F 29.9 in WSW 5.8 mph 5.8 mph 47 % 0 in
18:14 83.1 °F 61.3 °F 29.9 in SW 5.8 mph 5.8 mph 48 % 0 in
18:19 83.1 °F 61.3 °F 29.9 in WSW 6.9 mph 6.9 mph 48 % 0 in
18:24 82.9 °F 61.2 °F 29.9 in SSW 4.6 mph 4.6 mph 48 % 0 in
18:29 82.9 °F 61.2 °F 29.9 in SW 5.8 mph 5.8 mph 48 % 0 in
18:34 82.9 °F 61.2 °F 29.9 in SW 4.6 mph 4.6 mph 48 % 0 in
18:39 82.9 °F 61.2 °F 29.9 in WSW 9.2 mph 9.2 mph 48 % 0 in
18:44 82.9 °F 61.2 °F 29.9 in SW 5.8 mph 5.8 mph 48 % 0 in
18:49 82.8 °F 61.2 °F 29.9 in SW 6.9 mph 6.9 mph 48 % 0 in
18:54 82.9 °F 61.2 °F 29.9 in West 3.5 mph 3.5 mph 48 % 0 in
18:59 82.8 °F 61.2 °F 29.9 in SW 4.6 mph 4.6 mph 48 % 0 in
19:04 82.4 °F 60.6 °F 29.9 in SW 5.8 mph 5.8 mph 48 % 0 in
19:09 82.4 °F 60.6 °F 29.9 in WSW 6 mph 6 mph 48 % 0 in
19:14 82.4 °F 60.6 °F 29.9 in SW 4.6 mph 4.6 mph 48 % 0 in
19:19 82.6 °F 61 °F 29.9 in WSW 3.5 mph 3.5 mph 48 % 0 in
19:24 82.4 °F 60.1 °F 29.9 in WSW 4.6 mph 4.6 mph 47 % 0 in
19:29 82.6 °F 60.3 °F 29.9 in West 4.6 mph 4.6 mph 47 % 0 in
19:34 82.4 °F 60.1 °F 29.9 in West 2.9 mph 2.9 mph 47 % 0 in
19:39 82.4 °F 60.1 °F 29.9 in SW 3.3 mph 3.3 mph 47 % 0 in
19:44 82.4 °F 60.1 °F 29.9 in West 2.6 mph 2.6 mph 47 % 0 in
19:49 82 °F 59.7 °F 29.9 in West 2.3 mph 2.3 mph 47 % 0 in
19:54 82 °F 59.7 °F 29.9 in SSW 2.4 mph 2.4 mph 47 % 0 in
19:59 81.9 °F 60.3 °F 29.9 in SW 2.3 mph 2.3 mph 48 % 0 in
20:04 81.7 °F 60.1 °F 29.9 in SW 2.3 mph 2.4 mph 48 % 0 in
20:06 81.7 °F 60.1 °F 29.9 in WSW 2.3 mph 2.3 mph 48 % 0 in
20:11 81.7 °F 60.1 °F 29.9 in WSW 2.3 mph 2.3 mph 48 % 0 in
20:16 81.7 °F 60.1 °F 29.9 in SW 2 mph 2 mph 48 % 0 in
20:21 81.5 °F 59.9 °F 29.9 in SW 2.3 mph 2.3 mph 48 % 0 in
20:26 81.3 °F 59.7 °F 29.9 in WSW 2.3 mph 2.3 mph 48 % 0 in
20:31 81.3 °F 59.7 °F 29.9 in SW 2.6 mph 2.6 mph 48 % 0 in
20:36 81.1 °F 59.5 °F 29.9 in WSW 2.3 mph 2.3 mph 48 % 0 in
20:41 81.1 °F 59.5 °F 29.9 in SW 2.3 mph 2.3 mph 48 % 0 in
20:46 80.8 °F 59.7 °F 29.9 in South 1.4 mph 1.4 mph 49 % 0 in
20:51 80.6 °F 59.7 °F 29.9 in WSW 3.5 mph 3.5 mph 49 % 0 in
20:56 80.4 °F 60.1 °F 29.9 in SW 3.5 mph 3.5 mph 50 % 0 in
21:01 80.2 °F 59.9 °F 29.9 in SW 3.5 mph 3.5 mph 50 % 0 in
21:06 80.1 °F 60.3 °F 29.9 in WSW 3.5 mph 3.5 mph 51 % 0 in
21:11 79.9 °F 60.1 °F 29.9 in SW 2.3 mph 2.3 mph 51 % 0 in
21:16 79.5 °F 59.7 °F 29.9 in SSW 3.5 mph 3.5 mph 51 % 0 in
21:21 79.3 °F 60.3 °F 29.9 in SW 2.3 mph 2.3 mph 52 % 0 in
21:26 79.2 °F 60.1 °F 29.9 in SW 4.6 mph 4.6 mph 52 % 0 in
21:31 79 °F 60.4 °F 29.9 in SSW 3.3 mph 3.3 mph 53 % 0 in
21:36 78.8 °F 60.3 °F 29.9 in SW 3.5 mph 3.5 mph 53 % 0 in
21:41 78.6 °F 60.1 °F 29.9 in WSW 2.3 mph 2.3 mph 53 % 0 in
21:46 78.3 °F 59.7 °F 29.9 in SW 3.8 mph 3.8 mph 53 % 0 in
21:51 77.9 °F 59.9 °F 29.9 in WSW 4.6 mph 4.6 mph 54 % 0 in
21:56 77.9 °F 59.9 °F 29.9 in WNW 4.6 mph 4.6 mph 54 % 0 in
22:01 77.7 °F 60.3 °F 30 in SW 3.5 mph 3.5 mph 55 % 0 in
22:06 77.7 °F 60.3 °F 30 in West 4.6 mph 4.6 mph 55 % 0 in
22:11 77.5 °F 60.1 °F 30 in WSW 4 mph 4 mph 55 % 0 in
22:16 77.4 °F 59.9 °F 30 in West 4.6 mph 4.6 mph 55 % 0 in
22:21 77.2 °F 59.7 °F 30 in WSW 3.8 mph 3.8 mph 55 % 0 in
22:26 77.2 °F 59.7 °F 30 in SW 3.5 mph 3.5 mph 55 % 0 in
22:31 77 °F 60.1 °F 30 in SW 2.3 mph 2.3 mph 56 % 0 in
22:36 76.8 °F 59.9 °F 30 in WSW 4.6 mph 4.6 mph 56 % 0 in
22:41 76.6 °F 60.3 °F 30 in WSW 1.6 mph 1.6 mph 57 % 0 in
22:46 76.5 °F 60.1 °F 30 in SW 2.6 mph 2.6 mph 57 % 0 in
22:51 76.5 °F 59.5 °F 30 in West 3.3 mph 3.3 mph 56 % 0 in
22:56 76.3 °F 59.4 °F 30 in SW 3.8 mph 3.8 mph 56 % 0 in
23:01 76.3 °F 59.4 °F 30 in SW 2.4 mph 2.4 mph 56 % 0 in
23:06 76.1 °F 59.7 °F 30 in SW 2.3 mph 2.3 mph 57 % 0 in
23:11 75.9 °F 59.2 °F 30 in WSW 2.3 mph 2.3 mph 56 % 0 in
23:16 75.9 °F 59.2 °F 30 in West 3.6 mph 3.6 mph 56 % 0 in
23:21 75.9 °F 59.2 °F 30 in WSW 2.6 mph 2.6 mph 56 % 0 in
23:26 75.7 °F 58.8 °F 30 in West 2.3 mph 2.3 mph 56 % 0 in
23:31 75.6 °F 59.4 °F 30 in WSW 2.3 mph 2.3 mph 57 % 0 in
23:36 75.4 °F 59.2 °F 30 in West 2.2 mph 2.2 mph 57 % 0 in
23:41 75.4 °F 59.2 °F 30 in WSW 1.4 mph 1.4 mph 57 % 0 in
23:46 75.4 °F 59.2 °F 30 in West 1.4 mph 1.4 mph 57 % 0 in
23:51 75.4 °F 58.6 °F 30 in West 2.3 mph 2.3 mph 56 % 0 in
23:56 75.4 °F 58.6 °F 30 in West 2.3 mph 2.3 mph 56 % 0 in
Meteo Sesrovires
Elogis d' Weather Underground - 3.5 mb

Guio original per  Jim McMurry - jmcmurry@mwt.net Adaptat per a la plantilla per  Wim van der Kuil - Leuven-Template.eu

Trobareu la nostra informacio del temps tambe a:

Weather Underground

AWEKAS